MET'MAP v2.0
soon released !

Expected late october,
this new version will be
more efficient, smarter,
and hosted on a brand new
server x3 powerfull...
...and still free !


Not compatible ?
Try the mobile version !

LOG IN : | Subscribe | Disclaimer | Who is Orbifly ? |
ICAO code :
Legend : VFR Marginal VFR IFR Intensive IFR Very Intensive IFR
Visi :
Ceiling :
>= 8 km
>= 3000ft
5 to 8 km
1000 to 3000 ft
1500m to 5 km
500 to 1000 ft
800 to 1500m
200 to 500 ft
< 800m
< 200 ft

METAR - EPSC Szczecin Goleniow - 01 Oct 2020 20:55 UTC - Data Source NOAA   


- Airport Elevation : 154 ft
- IATA code : SZZ
- No reported NOTAMs.


EPSC - Szczecin Goleniow

Latest METAR recorded : 2015/08/11 08:00 EPSC 110800Z 10004KT 060V130 CAVOK 27/15 Q1015
TAF TAF EPSC
Valid from the 01 at 18:00 until the 02 at 18:00 UTC


011730Z 0118/0218 VRB02KT 9999 SCT030
TEMPO 0122/0209 4000 BR BKN012
PROB40 0200/0208 2000 -DZ BR BKN005
BECMG 0208/0210 10010KT

Source NOAA


MET'MAP, your aeronautical weather chart ! - Copyright ORBIFLY December 2007

Programming & Development : Alexandra Zaïnal
Co-Developer : Marc-Olivier Méhu
Technical & hardware support : Manuel Goepfert
Concept & Financing : Baudouin d'Aumeries